AGROMETEOROLOŠKI PORTAL

vinorodna pokrajina

Temelj dobrega kmetovanja

Pregled podatkov za lokacijo Vogrsko, meteorološka postaja 49191

Pregled senzorjev na lokaciji

ID Ime Zadnja
vrednost
Datum in čas
meritve
(lokalni čas)
Tip
senzorja
3645 Sončno sevanje (W/m2) 0 W/m2 4.2.2023 23:30 Pyranometer SP-Lite
3643 Omočenost lista (1,5 m) (U) 0 U 4.2.2023 23:30 A730WET
5058 Padavine (mm) 0 mm 4.2.2023 23:30 Generic 0.2 mm
3642 Relativna zračna vlaga (2 m) (%RH) 40 %RH 4.2.2023 23:30 50YA
5740 Temperatura tal (30 cm) (°C) 4,9 °C 4.2.2023 23:30 ST2
3641 Temperatura (2 m) (°C) 6,3 °C 4.2.2023 23:30 50YA
6642 Smer vetra (3 m) (°) 134 ° 4.2.2023 23:30 Generic 0 - 360
6641 Hitrost vetra (3 m) (km/h) 14 km/h 4.2.2023 23:30 Pro10/2 270 km/h

Pregled podatkov zadnjih 24 ur

Zap.
št.
Datum in čas
(lokalni čas)
Vogrsko
Sončno
sevanje
Omočenost
lista
(1,5
m)
Padavine Relativna
zračna
vlaga
(2
m)
Temperatura
tal
(30
cm)
Temperatura
(2
m)
Smer
vetra
(3
m)
Hitrost
vetra
(3
m)
1 4.2.2023 23:30 0 0 0 39,9 4,9 6,3 133,6 13,9
2 4.2.2023 23:00 0 0 0 40,6 5 6,3 165,7 16,9
3 4.2.2023 22:30 0 0 0 39,4 4,9 6,8 167,1 15,6
4 4.2.2023 22:00 0 0 0 38,8 4,9 7,1 176,8 18,9
5 4.2.2023 21:30 0 0 0 38,1 4,9 7,2 159,4 21,5
6 4.2.2023 21:00 0 0 0 38,9 4,9 7,1 166,8 12,5
7 4.2.2023 20:30 0 0 0 38,3 4,9 7,5 164,5 17,3
8 4.2.2023 20:00 0 0 0 35,6 5 8,3 159,2 12,9
9 4.2.2023 19:30 0 0 0 35,1 4,8 8,7 182,7 13,5
10 4.2.2023 19:00 0 0 0 30,8 4,8 10,1 201 16,2
11 4.2.2023 18:30 0 0 0 29 4,7 10,7 29,2 21,2
12 4.2.2023 18:00 0,1 0 0 29,5 4,9 10,9 51,6 16,3
13 4.2.2023 17:30 4,6 0 0 29,5 4,7 11,5 63 26,6
14 4.2.2023 17:00 42 0 0 27,8 4,7 12,4 36,8 28,4
15 4.2.2023 16:30 112,6 0 0 27,7 4,6 13,2 49,9 21,7
16 4.2.2023 16:00 172,2 0 0 28,3 4,7 13,8 61,9 17,8
17 4.2.2023 15:30 221,6 0 0 28,3 4,7 14,4 60 14,9
18 4.2.2023 15:00 273,4 0 0 34,2 4,7 15,3 77,3 3,9
19 4.2.2023 14:30 352,9 0 0 44,8 4,7 14,9 313,3 2,6
20 4.2.2023 14:00 378,1 0 0 52,5 4,7 14,2 53,6 5,1
21 4.2.2023 13:30 398 0 0 54 4,8 13,7 283 8,2
22 4.2.2023 13:00 419,4 0 0 52,8 4,8 13,3 301,3 6,9
23 4.2.2023 12:30 425,5 0 0 54,1 4,7 12,9 271,9 9,1
24 4.2.2023 12:00 422,1 0 0 57 4,8 12,5 294,8 7,3
25 4.2.2023 11:30 407,1 1 0 65,8 4,7 11,1 345 5,9
26 4.2.2023 11:00 376,7 3 0 76 4,7 9,3 273,2 2,7
27 4.2.2023 10:30 333,8 5 0 97,5 4,7 6,3 227,3 3,1
28 4.2.2023 10:00 280,5 10 0 99,5 4,6 3,6 288,9 2,5
29 4.2.2023 09:30 214,5 10 0 99,5 4,6 1,1 307,1 2,7
30 4.2.2023 09:00 168,5 9 0 99,3 4,6 -0,6 358,4 3
31 4.2.2023 08:30 71,3 1 0 99,1 4,6 -1,7 230 3,5
32 4.2.2023 08:00 21,7 1 0 99 4,6 -2,4 283,7 3,3
33 4.2.2023 07:30 2,7 1 0 99 4,5 -2,1 122,1 4
34 4.2.2023 07:00 0 1 0 99 4,6 -2,2 135,6 5,1
35 4.2.2023 06:30 0 1 0 99 4,5 -2,2 11,1 4
36 4.2.2023 06:00 0 1 0 98,9 4,6 -2 231,6 3,8
37 4.2.2023 05:30 0 1 0 98,9 4,6 -1,9 220,7 5,3
38 4.2.2023 05:00 0 1 0 98,7 4,7 -2,1 236,6 4,5
39 4.2.2023 04:30 0 1 0 98,6 4,6 -1,7 157,3 4,2
40 4.2.2023 04:00 0 1 0 98,5 4,7 -1,7 186,2 2,9
41 4.2.2023 03:30 0 1 0 98,4 4,6 -1,5 204 3
42 4.2.2023 03:00 0 1 0 98,4 4,7 -1,3 148,5 2,6
43 4.2.2023 02:30 0 1 0 98,3 4,7 -1,2 63,2 4,3
44 4.2.2023 02:00 0 2 0 98,1 4,7 -1 114,9 2,7
45 4.2.2023 01:30 0 10 0 97,9 4,6 -0,5 118,5 2
46 4.2.2023 01:00 0 10 0 97,8 4,6 -0,1 121,1 3,4
47 4.2.2023 00:30 0 10 0 97,6 4,6 0,4 272,7 3,4
48 4.2.2023 00:00 0 10 0 97,4 4,7 0,7 344 3,6